createdAt,value
2023-01-10T00:00:26.819Z,25.13
2023-01-10T00:01:26.691Z,25.13
2023-01-10T00:02:26.725Z,25.10
2023-01-10T00:03:26.692Z,25.13
2023-01-10T00:04:26.771Z,25.12
2023-01-10T00:05:26.653Z,25.13
2023-01-10T07:07:36.074Z,25.69
2023-01-10T08:02:34.589Z,25.89
2023-01-10T08:03:34.568Z,25.91
2023-01-10T08:04:34.371Z,25.95
2023-01-10T08:05:34.365Z,25.99
2023-01-10T08:06:34.356Z,25.97
2023-01-10T08:09:34.334Z,26.04
2023-01-10T08:11:34.315Z,26.10
2023-01-10T08:12:34.289Z,26.13
2023-01-10T08:13:34.316Z,26.13
2023-01-10T08:14:34.361Z,26.17
2023-01-10T08:15:34.270Z,26.17
2023-01-10T08:16:34.275Z,26.20
2023-01-10T08:17:34.254Z,26.21
2023-01-10T08:19:34.227Z,26.26
2023-01-10T08:20:34.221Z,26.29
2023-01-10T08:22:34.547Z,26.31
2023-01-10T08:23:34.309Z,26.30
2023-01-10T08:24:34.195Z,26.34
2023-01-10T08:25:34.190Z,26.33
2023-01-10T08:27:34.161Z,26.40
2023-01-10T08:28:34.155Z,26.43
2023-01-10T08:29:34.151Z,26.43
2023-01-10T08:30:34.147Z,26.43
2023-01-10T08:32:34.125Z,26.47
2023-01-10T08:33:34.135Z,26.45
2023-01-10T08:34:34.137Z,26.47
2023-01-10T08:35:34.084Z,26.52
2023-01-10T08:37:34.072Z,26.52
2023-01-10T08:38:34.090Z,26.50
2023-01-10T08:40:34.048Z,26.51
2023-01-10T08:41:34.042Z,26.47
2023-01-10T08:42:34.033Z,26.50
2023-01-10T08:43:34.043Z,26.51
2023-01-10T08:45:34.062Z,26.55
2023-01-10T08:48:33.969Z,26.55
2023-01-10T08:49:33.970Z,26.56
2023-01-10T08:50:33.966Z,26.59
2023-01-10T08:51:34.151Z,26.56
2023-01-10T08:52:33.936Z,26.59
2023-01-10T08:53:33.937Z,26.61
2023-01-10T08:54:33.917Z,26.61
2023-01-10T08:55:33.935Z,26.59
2023-01-10T08:56:34.131Z,26.58
2023-01-10T08:57:33.899Z,26.56
2023-01-10T08:58:33.921Z,26.50
2023-01-10T09:00:33.867Z,26.31
2023-01-10T09:01:34.315Z,26.21
2023-01-10T09:03:34.319Z,26.06
2023-01-10T09:05:33.846Z,26.02
2023-01-10T09:06:34.147Z,26.00
2023-01-10T09:07:33.889Z,26.02
2023-01-10T09:08:34.150Z,26.06
2023-01-10T09:09:34.179Z,26.07
2023-01-10T09:11:33.884Z,26.13
2023-01-10T09:17:34.131Z,26.29
2023-01-10T10:07:35.367Z,26.23
2023-01-10T10:27:34.230Z,26.83
2023-01-10T10:29:36.522Z,26.81
2023-01-10T10:49:33.872Z,25.96
2023-01-10T15:16:30.379Z,25.91
2023-01-10T18:42:28.440Z,25.65
2023-01-10T18:43:28.430Z,25.64
2023-01-10T18:44:28.437Z,25.60
2023-01-10T18:45:28.416Z,25.64
2023-01-10T18:46:28.603Z,25.62
2023-01-10T18:47:28.424Z,25.64
2023-01-10T18:48:28.394Z,25.62
2023-01-10T18:49:28.386Z,25.62
2023-01-10T18:50:28.367Z,25.61
2023-01-10T18:51:28.357Z,25.62
2023-01-10T18:52:28.348Z,25.62
2023-01-10T18:53:28.337Z,25.62
2023-01-10T18:54:28.345Z,25.62
2023-01-10T18:55:28.331Z,25.62
2023-01-10T18:56:28.310Z,25.58
2023-01-10T18:57:28.303Z,25.60
2023-01-10T18:58:28.304Z,25.60
2023-01-10T18:59:28.282Z,25.60
2023-01-10T19:00:28.273Z,25.60
2023-01-10T19:01:28.298Z,25.61
2023-01-10T19:02:28.293Z,25.60
2023-01-10T19:03:28.269Z,25.60
2023-01-10T19:04:28.235Z,25.61
2023-01-10T19:05:28.225Z,25.61
2023-01-10T19:06:28.219Z,25.60
2023-01-10T19:07:28.225Z,25.62
2023-01-10T19:08:28.202Z,25.60
2023-01-10T19:09:28.381Z,25.60
2023-01-10T19:10:29.043Z,25.57
2023-01-10T19:11:28.176Z,25.61
2023-01-10T19:12:28.158Z,25.58
2023-01-10T19:27:28.393Z,25.55
2023-01-10T19:41:28.885Z,25.55
2023-01-10T19:53:28.393Z,25.57
